createdAt,value
2018-07-04T00:00:18.157Z,1010.3
2018-07-04T00:01:27.830Z,1010.28
2018-07-04T00:02:37.569Z,1010.27
2018-07-04T00:03:47.230Z,1010.26
2018-07-04T00:04:56.123Z,1010.33
2018-07-04T00:06:06.042Z,1010.27
2018-07-04T00:07:15.446Z,1010.29
2018-07-04T00:08:24.400Z,1010.29
2018-07-04T00:09:33.290Z,1010.31
2018-07-04T00:10:42.950Z,1010.25
2018-07-04T00:11:52.148Z,1010.27
2018-07-04T00:13:01.561Z,1010.26
2018-07-04T00:14:10.454Z,1010.24
2018-07-04T00:15:19.864Z,1010.25
2018-07-04T00:16:29.012Z,1010.22
2018-07-04T00:17:38.156Z,1010.21
2018-07-04T00:18:47.562Z,1010.21
2018-07-04T00:19:56.709Z,1010.23
2018-07-04T00:21:06.112Z,1010.16
2018-07-04T00:22:15.774Z,1010.19
2018-07-04T00:23:24.964Z,1010.16
2018-07-04T00:24:34.361Z,1010.19
2018-07-04T00:25:43.293Z,1010.15
2018-07-04T00:26:52.898Z,1010.14
2018-07-04T00:28:02.057Z,1010.07
2018-07-04T00:29:11.203Z,1010.11
2018-07-04T00:30:20.373Z,1010.13
2018-07-04T00:31:29.561Z,1010.07
2018-07-04T00:32:38.716Z,1010.07
2018-07-04T00:33:47.922Z,1010.08
2018-07-04T00:34:57.573Z,1010.02
2018-07-04T00:36:06.480Z,1010.03
2018-07-04T00:37:16.168Z,1010.01
2018-07-04T00:38:25.578Z,1010.05
2018-07-04T00:39:34.464Z,1010.03
2018-07-04T00:40:43.595Z,1010.04
2018-07-04T00:41:52.755Z,1010.02
2018-07-04T00:43:01.905Z,1010.02
2018-07-04T00:44:11.859Z,1010.06
2018-07-04T00:45:21.685Z,1010
2018-07-04T00:46:31.371Z,1010.05
2018-07-04T00:47:41.043Z,1010.03
2018-07-04T00:48:50.452Z,1010.02
2018-07-04T00:49:59.850Z,1010.02
2018-07-04T00:51:09.304Z,1010.03
2018-07-04T00:52:19.217Z,1010.01
2018-07-04T00:53:28.356Z,1010.03
2018-07-04T00:54:37.767Z,1010.03
2018-07-04T00:55:47.420Z,1010.03
2018-07-04T00:56:57.112Z,1010.03
2018-07-04T00:58:07.351Z,1010.02
2018-07-04T00:59:16.793Z,1010.01
2018-07-04T01:00:26.476Z,1010.03
2018-07-04T01:01:36.139Z,1010
2018-07-04T01:02:45.279Z,1010.03
2018-07-04T01:03:54.166Z,1010.03
2018-07-04T01:05:03.305Z,1010.05
2018-07-04T01:06:13.010Z,1010.08
2018-07-04T01:07:22.660Z,1010.06
2018-07-04T01:08:32.057Z,1010.1
2018-07-04T01:09:41.732Z,1010.05
2018-07-04T01:10:51.150Z,1010.03
2018-07-04T01:12:00.289Z,1010.02
2018-07-04T01:13:09.944Z,1010.02
2018-07-04T01:14:19.096Z,1010
2018-07-04T01:15:28.023Z,1009.99
2018-07-04T01:16:37.441Z,1009.97
2018-07-04T01:17:46.867Z,1009.95
2018-07-04T01:18:56.386Z,1009.95
2018-07-04T01:20:06.330Z,1009.91
2018-07-04T01:21:14.961Z,1009.9
2018-07-04T01:22:24.136Z,1009.93
2018-07-04T01:23:33.581Z,1009.89
2018-07-04T01:24:42.473Z,1009.87
2018-07-04T01:25:51.675Z,1009.85
2018-07-04T01:27:00.825Z,1009.84
2018-07-04T01:28:10.490Z,1009.84
2018-07-04T01:29:19.894Z,1009.82
2018-07-04T01:30:29.611Z,1009.81
2018-07-04T01:31:39.015Z,1009.79
2018-07-04T01:32:48.427Z,1009.8
2018-07-04T01:33:57.574Z,1009.81
2018-07-04T01:35:07.025Z,1009.81
2018-07-04T01:36:16.442Z,1009.81
2018-07-04T01:37:26.103Z,1009.82
2018-07-04T01:38:35.509Z,1009.8
2018-07-04T01:39:44.936Z,1009.8
2018-07-04T01:40:54.851Z,1009.82
2018-07-04T01:42:04.000Z,1009.83
2018-07-04T01:43:13.405Z,1009.89
2018-07-04T01:44:23.319Z,1009.88
2018-07-04T01:45:32.739Z,1009.9
2018-07-04T01:46:42.409Z,1009.91
2018-07-04T01:47:51.333Z,1009.86
2018-07-04T01:49:00.541Z,1009.86
2018-07-04T01:50:10.358Z,1009.82
2018-07-04T01:51:20.028Z,1009.88
2018-07-04T01:52:29.435Z,1009.88
2018-07-04T01:53:38.836Z,1009.86
2018-07-04T01:54:48.238Z,1009.87
2018-07-04T01:55:57.380Z,1009.85
2018-07-04T01:57:07.296Z,1009.86
2018-07-04T01:58:17.210Z,1009.91
2018-07-04T01:59:26.639Z,1009.9
2018-07-04T02:00:36.071Z,1009.88
2018-07-04T02:01:45.731Z,1009.9
2018-07-04T02:02:55.126Z,1009.88
2018-07-04T02:04:04.029Z,1009.81
2018-07-04T02:05:13.440Z,1009.84
2018-07-04T02:06:23.097Z,1009.84
2018-07-04T02:07:32.492Z,1009.86
2018-07-04T02:08:42.413Z,1009.82
2018-07-04T02:09:51.569Z,1009.84
2018-07-04T02:11:00.966Z,1009.87
2018-07-04T02:12:09.855Z,1009.86
2018-07-04T02:13:18.997Z,1009.89
2018-07-04T02:14:28.403Z,1009.88
2018-07-04T02:15:37.546Z,1009.9
2018-07-04T02:16:47.476Z,1009.89
2018-07-04T02:17:56.635Z,1009.87
2018-07-04T02:19:05.842Z,1009.92
2018-07-04T02:20:15.504Z,1009.88
2018-07-04T02:21:25.175Z,1009.85
2018-07-04T02:22:34.605Z,1009.87
2018-07-04T02:23:43.495Z,1009.83
2018-07-04T02:24:52.651Z,1009.83
2018-07-04T02:26:01.789Z,1009.79
2018-07-04T02:27:10.937Z,1009.79
2018-07-04T02:28:20.595Z,1009.73
2018-07-04T02:29:30.006Z,1009.77
2018-07-04T02:30:39.158Z,1009.77
2018-07-04T02:31:48.830Z,1009.71
2018-07-04T02:32:58.751Z,1009.76
2018-07-04T02:34:08.689Z,1009.73
2018-07-04T02:35:18.343Z,1009.73
2018-07-04T02:36:28.009Z,1009.71
2018-07-04T02:37:37.674Z,1009.71
2018-07-04T02:38:47.376Z,1009.7
2018-07-04T02:39:56.791Z,1009.71
2018-07-04T02:41:06.198Z,1009.7
2018-07-04T02:42:15.868Z,1009.69
2018-07-04T02:43:25.525Z,1009.71
2018-07-04T02:44:34.927Z,1009.65
2018-07-04T02:45:44.330Z,1009.67
2018-07-04T02:46:53.768Z,1009.67
2018-07-04T02:48:03.518Z,1009.66
2018-07-04T02:49:12.928Z,1009.63
2018-07-04T02:50:22.599Z,1009.64
2018-07-04T02:51:32.289Z,1009.65
2018-07-04T02:52:41.701Z,1009.63
2018-07-04T02:53:51.631Z,1009.63
2018-07-04T02:55:01.052Z,1009.63
2018-07-04T02:56:10.537Z,1009.65
2018-07-04T02:57:20.453Z,1009.64
2018-07-04T02:58:29.856Z,1009.66
2018-07-04T02:59:39.257Z,1009.67
2018-07-04T03:00:48.675Z,1009.66
2018-07-04T03:01:58.085Z,1009.68
2018-07-04T03:03:07.226Z,1009.69
2018-07-04T03:04:16.659Z,1009.66
2018-07-04T03:05:26.579Z,1009.64
2018-07-04T03:06:36.232Z,1009.63
2018-07-04T03:07:45.890Z,1009.65
2018-07-04T03:08:55.819Z,1009.63
2018-07-04T03:10:05.229Z,1009.65
2018-07-04T03:11:14.637Z,1009.65
2018-07-04T03:12:24.292Z,1009.63
2018-07-04T03:13:34.208Z,1009.65
2018-07-04T03:14:43.863Z,1009.61
2018-07-04T03:15:53.555Z,1009.61
2018-07-04T03:17:03.234Z,1009.57
2018-07-04T03:18:12.656Z,1009.59
2018-07-04T03:19:22.328Z,1009.6
2018-07-04T03:20:31.997Z,1009.66
2018-07-04T03:21:41.665Z,1009.66
2018-07-04T03:22:51.325Z,1009.63
2018-07-04T03:24:01.025Z,1009.6
2018-07-04T03:25:10.681Z,1009.61
2018-07-04T03:26:20.620Z,1009.63
2018-07-04T03:27:30.279Z,1009.62
2018-07-04T03:28:39.932Z,1009.63
2018-07-04T03:29:49.352Z,1009.6
2018-07-04T03:30:59.016Z,1009.64
2018-07-04T03:32:08.680Z,1009.61
2018-07-04T03:33:18.706Z,1009.6
2018-07-04T03:34:27.865Z,1009.58
2018-07-04T03:35:37.013Z,1009.57
2018-07-04T03:36:46.443Z,1009.58
2018-07-04T03:37:56.345Z,1009.54
2018-07-04T03:39:06.015Z,1009.59
2018-07-04T03:40:16.010Z,1009.57
2018-07-04T03:41:25.672Z,1009.6
2018-07-04T03:42:35.084Z,1009.59
2018-07-04T03:43:44.235Z,1009.6
2018-07-04T03:44:53.636Z,1009.62
2018-07-04T03:46:03.295Z,1009.59
2018-07-04T03:47:12.949Z,1009.56
2018-07-04T03:48:22.603Z,1009.57
2018-07-04T03:49:32.015Z,1009.55
2018-07-04T03:50:41.150Z,1009.55
2018-07-04T03:51:50.556Z,1009.59
2018-07-04T03:52:59.837Z,1009.58
2018-07-04T03:54:09.254Z,1009.56
2018-07-04T03:55:17.896Z,1009.6
2018-07-04T03:56:27.573Z,1009.59
2018-07-04T03:57:36.719Z,1009.57
2018-07-04T03:58:46.631Z,1009.55
2018-07-04T03:59:56.290Z,1009.56
2018-07-04T04:01:05.716Z,1009.54
2018-07-04T04:02:15.139Z,1009.56
2018-07-04T04:03:24.287Z,1009.53
2018-07-04T04:04:33.703Z,1009.57
2018-07-04T04:05:42.589Z,1009.61
2018-07-04T04:06:52.255Z,1009.63
2018-07-04T04:08:01.395Z,1009.62
2018-07-04T04:09:10.800Z,1009.64
2018-07-04T04:10:20.735Z,1009.67
2018-07-04T04:11:30.656Z,1009.64
2018-07-04T04:12:40.318Z,1009.71
2018-07-04T04:13:49.720Z,1009.71
2018-07-04T04:14:59.127Z,1009.71
2018-07-04T04:16:08.791Z,1009.7
2018-07-04T04:17:17.718Z,1009.7
2018-07-04T04:18:27.381Z,1009.69
2018-07-04T04:19:36.775Z,1009.74
2018-07-04T04:20:46.229Z,1009.71
2018-07-04T04:21:55.383Z,1009.75
2018-07-04T04:23:04.542Z,1009.75
2018-07-04T04:24:14.466Z,1009.73
2018-07-04T04:25:24.137Z,1009.73
2018-07-04T04:26:33.544Z,1009.73
2018-07-04T04:27:43.467Z,1009.7
2018-07-04T04:28:52.907Z,1009.71
2018-07-04T04:30:02.305Z,1009.7
2018-07-04T04:31:11.981Z,1009.66
2018-07-04T04:32:21.388Z,1009.69
2018-07-04T04:33:30.875Z,1009.65
2018-07-04T04:34:39.514Z,1009.65
2018-07-04T04:35:48.665Z,1009.68
2018-07-04T04:36:58.590Z,1009.66
2018-07-04T04:38:08.516Z,1009.68
2018-07-04T04:39:18.198Z,1009.68
2018-07-04T04:40:27.086Z,1009.68
2018-07-04T04:41:36.493Z,1009.71
2018-07-04T04:42:46.398Z,1009.68
2018-07-04T04:43:55.300Z,1009.7
2018-07-04T04:45:04.193Z,1009.72
2018-07-04T04:46:13.599Z,1009.71
2018-07-04T04:47:23.253Z,1009.68
2018-07-04T04:48:32.901Z,1009.72
2018-07-04T04:49:42.557Z,1009.72
2018-07-04T04:50:52.223Z,1009.76
2018-07-04T04:52:01.364Z,1009.72
2018-07-04T04:53:10.507Z,1009.75
2018-07-04T04:54:19.675Z,1009.75
2018-07-04T04:55:28.569Z,1009.73
2018-07-04T04:56:37.983Z,1009.74
2018-07-04T04:57:47.450Z,1009.76
2018-07-04T04:58:56.343Z,1009.76
2018-07-04T05:00:05.764Z,1009.77
2018-07-04T05:01:14.912Z,1009.76
2018-07-04T05:02:24.580Z,1009.76
2018-07-04T05:03:33.729Z,1009.75
2018-07-04T05:04:43.129Z,1009.75
2018-07-04T05:05:52.523Z,1009.72
2018-07-04T05:07:02.193Z,1009.74
2018-07-04T05:08:11.601Z,1009.7
2018-07-04T05:09:20.480Z,1009.7
2018-07-04T05:10:29.635Z,1009.69
2018-07-04T05:11:39.292Z,1009.71
2018-07-04T05:12:48.704Z,1009.7
2018-07-04T05:13:58.143Z,1009.68
2018-07-04T05:15:07.043Z,1009.71
2018-07-04T05:16:16.962Z,1009.73
2018-07-04T05:17:26.380Z,1009.69
2018-07-04T05:18:35.278Z,1009.7
2018-07-04T05:19:44.421Z,1009.73
2018-07-04T05:20:53.880Z,1009.69
2018-07-04T05:22:03.897Z,1009.71
2018-07-04T05:23:13.564Z,1009.72
2018-07-04T05:24:22.966Z,1009.68
2018-07-04T05:25:32.615Z,1009.68
2018-07-04T05:26:42.323Z,1009.67
2018-07-04T05:27:51.468Z,1009.65
2018-07-04T05:29:00.373Z,1009.62
2018-07-04T05:30:09.528Z,1009.65
2018-07-04T05:31:18.977Z,1009.61
2018-07-04T05:32:28.131Z,1009.58
2018-07-04T05:33:37.529Z,1009.59
2018-07-04T05:34:47.194Z,1009.59
2018-07-04T05:35:57.112Z,1009.57
2018-07-04T05:37:06.512Z,1009.56
2018-07-04T05:38:15.396Z,1009.59
2018-07-04T05:39:24.828Z,1009.59
2018-07-04T05:40:33.756Z,1009.6
2018-07-04T05:41:43.788Z,1009.58
2018-07-04T05:42:53.250Z,1009.6
2018-07-04T05:44:02.390Z,1009.6
2018-07-04T05:45:11.555Z,1009.58
2018-07-04T05:46:20.709Z,1009.57
2018-07-04T05:47:30.977Z,1009.6
2018-07-04T05:48:40.217Z,1009.57
2018-07-04T05:49:49.626Z,1009.54
2018-07-04T05:50:58.522Z,1009.55
2018-07-04T05:52:07.688Z,1009.5
2018-07-04T05:53:17.348Z,1009.54
2018-07-04T05:54:26.777Z,1009.52
2018-07-04T05:55:36.187Z,1009.55
2018-07-04T05:56:46.123Z,1009.54
2018-07-04T05:57:55.536Z,1009.54
2018-07-04T05:59:04.673Z,1009.57
2018-07-04T06:00:13.838Z,1009.58
2018-07-04T06:01:23.240Z,1009.55
2018-07-04T06:02:32.900Z,1009.57
2018-07-04T06:03:42.677Z,1009.55
2018-07-04T06:04:52.081Z,1009.53
2018-07-04T06:06:01.752Z,1009.5
2018-07-04T06:07:11.693Z,1009.48
2018-07-04T06:08:21.122Z,1009.5
2018-07-04T06:09:30.282Z,1009.47
2018-07-04T06:10:39.436Z,1009.44
2018-07-04T06:11:48.593Z,1009.45
2018-07-04T06:12:58.254Z,1009.48
2018-07-04T06:14:07.668Z,1009.45
2018-07-04T06:15:17.320Z,1009.44
2018-07-04T06:16:26.741Z,1009.44
2018-07-04T06:17:35.674Z,1009.48
2018-07-04T06:18:45.533Z,1009.44
2018-07-04T06:19:55.248Z,1009.46
2018-07-04T06:21:04.676Z,1009.49
2018-07-04T06:22:14.333Z,1009.48
2018-07-04T06:23:23.218Z,1009.5
2018-07-04T06:24:32.366Z,1009.49
2018-07-04T06:25:42.457Z,1009.5
2018-07-04T06:26:51.862Z,1009.47
2018-07-04T06:28:01.263Z,1009.48
2018-07-04T06:29:10.416Z,1009.5
2018-07-04T06:30:20.332Z,1009.47
2018-07-04T06:31:29.741Z,1009.42
2018-07-04T06:32:38.883Z,1009.41
2018-07-04T06:33:48.766Z,1009.41
2018-07-04T06:34:58.495Z,1009.43
2018-07-04T06:36:07.725Z,1009.42
2018-07-04T06:37:17.404Z,1009.42
2018-07-04T06:38:26.352Z,1009.45
2018-07-04T06:39:35.500Z,1009.42
2018-07-04T06:40:45.165Z,1009.41
2018-07-04T06:41:54.828Z,1009.4
2018-07-04T06:43:04.243Z,1009.42
2018-07-04T06:44:13.157Z,1009.38
2018-07-04T06:45:22.056Z,1009.43
2018-07-04T06:46:31.741Z,1009.45
2018-07-04T06:47:41.654Z,1009.47
2018-07-04T06:48:51.089Z,1009.47
2018-07-04T06:50:01.019Z,1009.46
2018-07-04T06:51:10.426Z,1009.49
2018-07-04T06:52:19.590Z,1009.48
2018-07-04T06:53:29.269Z,1009.5
2018-07-04T06:54:38.943Z,1009.47
2018-07-04T06:55:48.614Z,1009.47
2018-07-04T06:56:57.832Z,1009.49
2018-07-04T06:58:07.006Z,1009.46
2018-07-04T06:59:16.179Z,1009.46
2018-07-04T07:00:25.077Z,1009.48
2018-07-04T07:01:35.014Z,1009.49
2018-07-04T07:02:44.701Z,1009.5
2018-07-04T07:03:53.862Z,1009.48
2018-07-04T07:05:03.276Z,1009.51
2018-07-04T07:06:12.705Z,1009.47
2018-07-04T07:07:22.112Z,1009.47
2018-07-04T07:08:31.789Z,1009.5
2018-07-04T07:09:41.155Z,1009.51
2018-07-04T07:10:50.305Z,1009.53
2018-07-04T07:11:59.714Z,1009.53
2018-07-04T07:13:09.156Z,1009.53
2018-07-04T07:14:18.847Z,1009.51
2018-07-04T07:15:29.028Z,1009.53
2018-07-04T07:16:38.717Z,1009.57
2018-07-04T07:17:48.658Z,1009.62
2018-07-04T07:18:58.067Z,1009.59
2018-07-04T07:20:07.259Z,1009.56
2018-07-04T07:21:17.273Z,1009.57
2018-07-04T07:22:26.778Z,1009.54
2018-07-04T07:23:36.190Z,1009.56
2018-07-04T07:24:45.607Z,1009.54
2018-07-04T07:25:54.750Z,1009.49
2018-07-04T07:27:04.174Z,1009.51
2018-07-04T07:28:13.834Z,1009.5
2018-07-04T07:29:23.936Z,1009.44
2018-07-04T07:30:32.828Z,1009.43
2018-07-04T07:31:42.242Z,1009.45
2018-07-04T07:32:51.657Z,1009.42
2018-07-04T07:34:01.200Z,1009.41
2018-07-04T07:35:11.370Z,1009.4
2018-07-04T07:36:20.625Z,1009.41
2018-07-04T07:37:30.572Z,1009.4
2018-07-04T07:38:39.975Z,1009.38
2018-07-04T07:39:48.870Z,1009.37
2018-07-04T07:40:58.271Z,1009.36
2018-07-04T07:42:07.172Z,1009.39
2018-07-04T07:43:16.603Z,1009.33
2018-07-04T07:44:25.767Z,1009.34
2018-07-04T07:45:35.175Z,1009.34
2018-07-04T07:46:44.600Z,1009.33
2018-07-04T07:47:54.009Z,1009.34
2018-07-04T07:49:03.150Z,1009.32
2018-07-04T07:50:12.822Z,1009.32
2018-07-04T07:51:21.978Z,1009.3
2018-07-04T07:52:31.389Z,1009.31
2018-07-04T07:53:41.047Z,1009.29
2018-07-04T07:54:49.955Z,1009.32
2018-07-04T07:55:59.370Z,1009.32
2018-07-04T07:57:08.534Z,1009.28
2018-07-04T07:58:17.444Z,1009.28
2018-07-04T07:59:26.864Z,1009.33
2018-07-04T08:00:36.539Z,1009.32
2018-07-04T08:01:46.472Z,1009.33
2018-07-04T08:02:55.773Z,1009.34
2018-07-04T08:04:05.444Z,1009.35
2018-07-04T08:05:15.111Z,1009.36
2018-07-04T08:06:24.026Z,1009.34
2018-07-04T08:07:33.682Z,1009.37
2018-07-04T08:08:43.352Z,1009.37
2018-07-04T08:09:53.033Z,1009.35
2018-07-04T08:11:02.700Z,1009.36
2018-07-04T08:12:11.865Z,1009.35
2018-07-04T08:13:21.308Z,1009.43
2018-07-04T08:14:30.209Z,1009.42
2018-07-04T08:15:39.870Z,1009.41
2018-07-04T08:16:49.553Z,1009.39
2018-07-04T08:17:58.963Z,1009.36
2018-07-04T08:19:08.645Z,1009.37
2018-07-04T08:20:18.059Z,1009.37
2018-07-04T08:21:27.996Z,1009.36
2018-07-04T08:22:36.896Z,1009.37
2018-07-04T08:23:46.570Z,1009.37
2018-07-04T08:24:56.034Z,1009.35
2018-07-04T08:26:05.449Z,1009.37
2018-07-04T08:27:14.604Z,1009.36
2018-07-04T08:28:23.758Z,1009.36
2018-07-04T08:29:32.906Z,1009.36
2018-07-04T08:30:42.128Z,1009.38
2018-07-04T08:31:51.284Z,1009.4
2018-07-04T08:33:01.162Z,1009.4
2018-07-04T08:34:10.335Z,1009.4
2018-07-04T08:35:19.752Z,1009.4
2018-07-04T08:36:28.920Z,1009.41
2018-07-04T08:37:38.584Z,1009.4
2018-07-04T08:38:48.274Z,1009.42
2018-07-04T08:39:58.164Z,1009.4
2018-07-04T08:41:07.330Z,1009.44
2018-07-04T08:42:16.734Z,1009.44
2018-07-04T08:43:25.891Z,1009.44
2018-07-04T08:44:35.317Z,1009.47
2018-07-04T08:45:45.428Z,1009.46
2018-07-04T08:46:54.849Z,1009.45
2018-07-04T08:48:04.259Z,1009.46
2018-07-04T08:49:13.691Z,1009.47
2018-07-04T08:50:22.865Z,1009.5
2018-07-04T08:51:32.316Z,1009.53
2018-07-04T08:52:42.047Z,1009.56
2018-07-04T08:53:51.605Z,1009.6
2018-07-04T08:55:01.035Z,1009.64
2018-07-04T08:56:10.195Z,1009.58
2018-07-04T08:57:20.117Z,1009.63
2018-07-04T08:58:29.546Z,1009.62
2018-07-04T08:59:39.247Z,1009.62
2018-07-04T09:00:48.685Z,1009.61
2018-07-04T09:01:58.623Z,1009.6
2018-07-04T09:03:08.471Z,1009.6
2018-07-04T09:04:17.648Z,1009.61
2018-07-04T09:05:26.814Z,1009.58
2018-07-04T09:06:36.699Z,1009.59
2018-07-04T09:07:46.384Z,1009.65
2018-07-04T09:08:55.563Z,1009.7
2018-07-04T09:10:04.974Z,1009.68
2018-07-04T09:11:14.649Z,1009.73
2018-07-04T09:12:23.812Z,1009.78
2018-07-04T09:13:33.220Z,1009.81
2018-07-04T09:14:42.368Z,1009.78
2018-07-04T09:15:51.524Z,1009.82
2018-07-04T09:17:01.179Z,1009.89
2018-07-04T09:18:10.387Z,1009.92
2018-07-04T09:19:19.824Z,1009.9
2018-07-04T09:20:28.967Z,1009.86
2018-07-04T09:21:38.652Z,1009.92
2018-07-04T09:22:48.772Z,1009.93
2018-07-04T09:23:58.423Z,1009.95
2018-07-04T09:25:07.318Z,1009.96
2018-07-04T09:26:17.004Z,1009.96
2018-07-04T09:27:26.457Z,1009.96
2018-07-04T09:28:35.635Z,1009.96
2018-07-04T09:29:45.050Z,1009.98
2018-07-04T09:30:53.976Z,1009.92
2018-07-04T09:32:03.401Z,1009.92
2018-07-04T09:33:12.808Z,1009.91
2018-07-04T09:34:22.500Z,1009.91
2018-07-04T09:35:31.647Z,1009.92
2018-07-04T09:36:41.056Z,1009.89
2018-07-04T09:37:49.948Z,1009.95
2018-07-04T09:38:59.168Z,1009.92
2018-07-04T09:40:08.837Z,1009.97
2018-07-04T09:41:18.485Z,1009.95
2018-07-04T09:42:28.419Z,1009.93
2018-07-04T09:43:38.341Z,1009.94
2018-07-04T09:44:48.476Z,1009.98
2018-07-04T09:45:57.381Z,1009.98
2018-07-04T09:47:07.305Z,1009.99
2018-07-04T09:48:16.526Z,1009.96
2018-07-04T09:49:25.933Z,1009.93
2018-07-04T09:50:35.454Z,1009.89
2018-07-04T09:51:44.406Z,1009.85
2018-07-04T09:52:53.554Z,1009.85
2018-07-04T09:54:02.708Z,1009.85
2018-07-04T09:55:12.120Z,1009.85
2018-07-04T09:56:21.559Z,1009.83
2018-07-04T09:57:30.772Z,1009.82
2018-07-04T09:58:40.437Z,1009.84
2018-07-04T09:59:50.299Z,1009.86
2018-07-04T10:00:58.940Z,1009.86
2018-07-04T10:02:08.628Z,1009.9
2018-07-04T10:03:18.556Z,1009.9
2018-07-04T10:04:27.978Z,1009.91
2018-07-04T10:05:37.934Z,1009.93
2018-07-04T10:06:48.326Z,1009.88
2018-07-04T10:07:58.000Z,1009.91
2018-07-04T10:09:07.674Z,1009.91
2018-07-04T10:10:17.370Z,1009.93
2018-07-04T10:11:27.107Z,1009.91
2018-07-04T10:12:36.266Z,1009.9
2018-07-04T10:13:46.143Z,1009.92
2018-07-04T10:14:55.602Z,1009.88
2018-07-04T10:16:05.137Z,1009.88
2018-07-04T10:17:14.803Z,1009.84
2018-07-04T10:18:23.849Z,1009.84
2018-07-04T10:19:33.379Z,1009.85
2018-07-04T10:20:42.557Z,1009.82
2018-07-04T10:21:52.506Z,1009.83
2018-07-04T10:23:01.663Z,1009.78
2018-07-04T10:24:10.939Z,1009.72
2018-07-04T10:25:19.841Z,1009.76
2018-07-04T10:26:29.501Z,1009.78
2018-07-04T10:27:39.175Z,1009.79
2018-07-04T10:28:48.603Z,1009.74
2018-07-04T10:29:58.274Z,1009.74
2018-07-04T10:31:07.434Z,1009.73
2018-07-04T10:32:17.125Z,1009.71
2018-07-04T10:33:26.802Z,1009.73
2018-07-04T10:34:36.280Z,1009.69
2018-07-04T10:35:44.935Z,1009.69
2018-07-04T10:36:54.108Z,1009.71
2018-07-04T10:38:03.512Z,1009.72
2018-07-04T10:39:12.153Z,1009.72
2018-07-04T10:40:21.556Z,1009.69
2018-07-04T10:41:31.241Z,1009.74
2018-07-04T10:42:40.954Z,1009.74
2018-07-04T10:43:50.391Z,1009.72
2018-07-04T10:45:00.065Z,1009.72
2018-07-04T10:46:09.479Z,1009.76
2018-07-04T10:47:18.886Z,1009.67
2018-07-04T10:48:28.292Z,1009.69
2018-07-04T10:49:37.708Z,1009.67
2018-07-04T10:50:47.128Z,1009.68
2018-07-04T10:51:56.374Z,1009.62
2018-07-04T10:53:05.786Z,1009.62
2018-07-04T10:54:15.464Z,1009.62
2018-07-04T10:55:25.123Z,1009.61
2018-07-04T10:56:34.358Z,1009.58
2018-07-04T10:57:44.042Z,1009.6
2018-07-04T10:58:53.469Z,1009.56
2018-07-04T11:00:03.144Z,1009.55
2018-07-04T11:01:12.568Z,1009.5
2018-07-04T11:02:21.736Z,1009.47
2018-07-04T11:03:30.889Z,1009.45
2018-07-04T11:04:40.393Z,1009.44
2018-07-04T11:05:50.031Z,1009.4
2018-07-04T11:06:59.197Z,1009.4
2018-07-04T11:08:08.371Z,1009.37
2018-07-04T11:09:17.842Z,1009.34
2018-07-04T11:10:27.288Z,1009.28
2018-07-04T11:11:36.716Z,1009.22
2018-07-04T11:12:46.402Z,1009.2
2018-07-04T11:13:55.556Z,1009.2
2018-07-04T11:15:04.709Z,1009.15
2018-07-04T11:16:14.128Z,1009.16
2018-07-04T11:17:23.566Z,1009.17
2018-07-04T11:18:32.722Z,1009.13
2018-07-04T11:19:42.133Z,1009.14
2018-07-04T11:20:51.561Z,1009.14
2018-07-04T11:22:00.722Z,1009.15
2018-07-04T11:23:10.426Z,1009.15
2018-07-04T11:24:19.594Z,1009.15
2018-07-04T11:25:28.757Z,1009.19
2018-07-04T11:26:38.746Z,1009.2
2018-07-04T11:27:48.431Z,1009.25
2018-07-04T11:28:57.835Z,1009.25
2018-07-04T11:30:07.298Z,1009.28
2018-07-04T11:31:17.229Z,1009.26
2018-07-04T11:32:26.573Z,1009.29
2018-07-04T11:33:35.549Z,1009.35
2018-07-04T11:34:44.969Z,1009.37
2018-07-04T11:35:54.420Z,1009.41
2018-07-04T11:37:03.319Z,1009.42
2018-07-04T11:38:12.992Z,1009.46
2018-07-04T11:39:22.906Z,1009.44
2018-07-04T11:40:32.322Z,1009.47
2018-07-04T11:41:41.226Z,1009.54
2018-07-04T11:42:50.380Z,1009.54
2018-07-04T11:43:59.803Z,1009.54
2018-07-04T11:45:09.464Z,1009.52
2018-07-04T11:46:18.871Z,1009.54
2018-07-04T11:47:29.021Z,1009.55
2018-07-04T11:48:38.682Z,1009.58
2018-07-04T11:49:47.858Z,1009.59
2018-07-04T11:50:56.781Z,1009.59
2018-07-04T11:52:05.936Z,1009.58
2018-07-04T11:53:15.449Z,1009.6
2018-07-04T11:54:24.994Z,1009.58
2018-07-04T11:55:34.410Z,1009.55
2018-07-04T11:56:43.568Z,1009.54
2018-07-04T11:57:52.734Z,1009.52
2018-07-04T11:59:01.649Z,1009.57
2018-07-04T12:00:11.074Z,1009.52
2018-07-04T12:01:20.743Z,1009.54
2018-07-04T12:02:30.425Z,1009.49
2018-07-04T12:03:39.331Z,1009.53
2018-07-04T12:04:48.487Z,1009.52
2018-07-04T12:05:57.902Z,1009.53
2018-07-04T12:07:07.056Z,1009.5
2018-07-04T12:08:16.223Z,1009.55
2018-07-04T12:09:25.644Z,1009.57
2018-07-04T12:10:35.334Z,1009.53
2018-07-04T12:11:44.763Z,1009.53
2018-07-04T12:12:54.191Z,1009.47
2018-07-04T12:14:03.606Z,1009.51
2018-07-04T12:15:13.528Z,1009.48
2018-07-04T12:16:22.682Z,1009.48
2018-07-04T12:17:32.092Z,1009.51
2018-07-04T12:18:41.775Z,1009.55
2018-07-04T12:19:50.983Z,1009.58
2018-07-04T12:21:00.239Z,1009.56
2018-07-04T12:22:10.946Z,1009.61
2018-07-04T12:23:20.363Z,1009.61
2018-07-04T12:24:29.569Z,1009.65
2018-07-04T12:25:38.745Z,1009.64
2018-07-04T12:26:48.261Z,1009.64
2018-07-04T12:27:58.477Z,1009.65
2018-07-04T12:29:07.634Z,1009.64
2018-07-04T12:30:17.319Z,1009.61
2018-07-04T12:31:26.737Z,1009.67
2018-07-04T12:32:35.988Z,1009.65
2018-07-04T12:33:44.953Z,1009.66
2018-07-04T12:34:53.859Z,1009.66
2018-07-04T12:36:03.551Z,1009.66
2018-07-04T12:37:12.734Z,1009.62
2018-07-04T12:38:22.483Z,1009.59
2018-07-04T12:39:32.569Z,1009.61
2018-07-04T12:40:42.103Z,1009.62
2018-07-04T12:41:51.531Z,1009.61
2018-07-04T12:43:01.006Z,1009.61
2018-07-04T12:44:09.931Z,1009.56
2018-07-04T12:45:19.082Z,1009.57
2018-07-04T12:46:28.247Z,1009.55
2018-07-04T12:47:37.408Z,1009.56
2018-07-04T12:48:46.823Z,1009.54
2018-07-04T12:49:56.790Z,1009.55
2018-07-04T12:51:06.542Z,1009.56
2018-07-04T12:52:16.472Z,1009.6
2018-07-04T12:53:25.908Z,1009.57
2018-07-04T12:54:35.190Z,1009.59
2018-07-04T12:55:45.673Z,1009.54
2018-07-04T12:56:54.851Z,1009.5
2018-07-04T12:58:04.556Z,1009.52
2018-07-04T12:59:14.503Z,1009.55
2018-07-04T13:00:24.367Z,1009.5
2018-07-04T13:01:33.794Z,1009.47
2018-07-04T13:02:43.602Z,1009.49
2018-07-04T13:03:52.793Z,1009.46
2018-07-04T13:05:02.212Z,1009.48
2018-07-04T13:06:11.369Z,1009.45
2018-07-04T13:07:20.786Z,1009.43
2018-07-04T13:08:30.276Z,1009.45
2018-07-04T13:09:40.204Z,1009.42
2018-07-04T13:10:49.616Z,1009.38
2018-07-04T13:11:59.289Z,1009.39
2018-07-04T13:13:08.998Z,1009.35
2018-07-04T13:14:18.691Z,1009.37
2018-07-04T13:15:28.375Z,1009.45
2018-07-04T13:16:37.604Z,1009.4
2018-07-04T13:17:47.307Z,1009.45
2018-07-04T13:18:56.723Z,1009.5
2018-07-04T13:20:06.409Z,1009.51
2018-07-04T13:21:16.333Z,1009.54
2018-07-04T13:22:25.545Z,1009.53
2018-07-04T13:23:35.246Z,1009.52
2018-07-04T13:24:45.025Z,1009.52
2018-07-04T13:25:54.978Z,1009.48
2018-07-04T13:27:04.855Z,1009.46
2018-07-04T13:28:14.264Z,1009.5
2018-07-04T13:29:22.949Z,1009.52
2018-07-04T13:30:32.419Z,1009.52
2018-07-04T13:31:42.097Z,1009.57
2018-07-04T13:32:51.541Z,1009.53
2018-07-04T13:34:01.258Z,1009.57
2018-07-04T13:35:10.616Z,1009.57
2018-07-04T13:36:20.743Z,1009.53
2018-07-04T13:37:30.194Z,1009.62
2018-07-04T13:38:39.404Z,1009.63
2018-07-04T13:39:48.579Z,1009.66
2018-07-04T13:40:58.004Z,1009.64
2018-07-04T13:42:07.443Z,1009.63
2018-07-04T13:43:16.866Z,1009.64
2018-07-04T13:44:26.861Z,1009.62
2018-07-04T13:45:36.442Z,1009.64
2018-07-04T13:46:46.101Z,1009.62
2018-07-04T13:47:55.521Z,1009.6
2018-07-04T13:49:05.206Z,1009.67
2018-07-04T13:50:15.569Z,1009.63
2018-07-04T13:51:24.499Z,1009.64
2018-07-04T13:52:34.179Z,1009.61
2018-07-04T13:53:43.152Z,1009.57
2018-07-04T13:54:52.859Z,1009.58
2018-07-04T13:56:02.808Z,1009.59
2018-07-04T13:57:12.749Z,1009.54
2018-07-04T13:58:21.938Z,1009.5
2018-07-04T13:59:31.616Z,1009.52
2018-07-04T14:00:41.036Z,1009.47
2018-07-04T14:01:50.710Z,1009.51
2018-07-04T14:03:00.140Z,1009.57